Pagina principale
METAR-TAF:

METAR-TAF

Aeroporti :

Masjed Soleyman, Iran

latitudine: 31-59N, longitudine: 049-16E, altezza: 372 m

Osservazione

Il bollettino è stato emesso 2 ore e 1 minuti fa, alle 05:00 UTC
Vento 6 kt da nord-ovest
Temperature 13°C
Umidità 100%
Pressione 1017 hPa
Visibilità: 8000 m
Poco nuvoloso ad un'altezza di 3500 ft, Cumulonembo.
Nubi sparse ad un'altezza di 4000 ft
Cielo coperto ad un'altezza di 8000 ft
pioggia

METAR: OIAI 180500Z 32006KT 8000 RA FEW035CB SCT040 OVC080 13/13 Q1017

Ora: 10:31 (07:01 UTC)


TAF: mancante

Osservazioni e previsioni meteorologiche di più di 4000 aeroporti (messaggi METAR e TAF).

Le stazioni disponibili sono rappresentate dai dischi gialli e rossi sulla carta.

Puntare il mouse per vedere il nome della stazione.

Clicca sopra per visualizzare le osservazioni e previsioni meteorologiche.

Per cambiare la mappa : fare clic sui pulsanti verdi con una croce nera per ingrandire, il pulsante verde con un trattino per diminuire, o sulla freccia verde per le mappe adiacenti.


METAR-TAF: